中部国際空港の過去48時間の天気

中部国際空港 (Chubu Centrair International)

現在時刻: 11/24 00:12 JST (11/23 15:12 UTC) 以下の時間は現地時間です。

過去48時間のMETAR気象情報
時間 風向 風速(m/s) 視程 気温(℃) 湿度(%) 気圧(hPa) 天気現象
24 00:00 西 11 10km以上 9 62 1015
23 23:30 西 13 10km以上 9 66 1015
23 23:00 西 12 10km以上 9 71 1016
23 22:30 西 12 10km以上 9 62 1016
23 22:00 西 12 10km以上 9 66 1015
23 21:30 西北西 9 10km以上 9 66 1015
23 21:00 北西 12 10km以上 10 62 1015 周辺でしゅう雨
23 20:30 北西 12 10km以上 10 58 1015 周辺でしゅう雨
23 20:00 北西 11 10km以上 10 66 1014 周辺でしゅう雨
23 19:30 北西 13 10km以上 10 66 1013
23 19:00 北西 13 10km以上 11 62 1013
23 18:30 北西 13 10km以上 10 71 1013
23 18:00 北西 13 10km以上 10 71 1013 周辺でしゅう雨
23 17:30 北西 16 10km以上 11 67 1012 周辺でしゅう雨
23 17:00 北西 15 10km以上 12 62 1011 周辺でしゅう雨
23 16:30 北西 15 10km以上 12 62 1011 周辺でしゅう雨
23 16:00 北西 15 10km以上 12 58 1010
23 15:30 北北西 13 10km以上 12 58 1010
23 15:00 北北西 14 10km以上 12 62 1009
23 14:30 北北西 13 10km以上 13 58 1009 周辺でしゅう雨
23 14:00 北西 15 10km以上 13 58 1008 周辺でしゅう雨
23 13:30 北西 14 10km以上 14 59 1008 周辺でしゅう雨
23 13:00 北西 12 10km以上 14 63 1007 周辺でしゅう雨
23 12:30 北西 14 10km以上 14 63 1007
23 12:00 北西 15 10km以上 14 63 1007
23 11:30 北西 19 10km以上 14 63 1006
23 11:00 北西 15 10km以上 15 63 1007
23 10:30 北北西 15 10km以上 15 63 1006
23 10:00 北西 12 10km以上 15 63 1007
23 09:30 北西 13 10km以上 14 72 1007
23 09:00 北北西 9 10km以上 14 72 1007
23 08:30 北北西 8 10km以上 13 77 1007
23 08:00 北北西 9 10km以上 13 77 1007
23 07:30 北西 8 10km以上 12 88 1008 弱い雨
23 07:00 北北西 9 8,000m 12 88 1008 弱い雨
23 06:30 7 5,000m 11 87 1008 しゅう雨 もや
23 06:00 7 5,000m 11 87 1008 弱いしゅう雨 もや
23 05:30 7 7,000m 12 82 1008 弱いしゅう雨
23 05:00 8 8,000m 11 94 1009 弱いしゅう雨
23 04:30 8 8,000m 11 94 1009 しゅう雨
23 04:00 8 7,000m 11 94 1009 弱いしゅう雨
23 03:30 6 7,000m 11 87 1009 弱いしゅう雨
23 03:00 6 7,000m 11 87 1009 弱いしゅう雨
23 02:30 7 7,000m 11 87 1010 弱いしゅう雨
23 02:00 7 7,000m 11 87 1010 弱いしゅう雨
23 01:30 6 7,000m 11 87 1010 弱いしゅう雨
23 01:00 4 7,000m 11 87 1011 弱いしゅう雨
23 00:30 北北東 3 9,000m 11 82 1011 弱いしゅう雨
23 00:00 北東 3 10km以上 11 82 1011 弱いしゅう雨
22 23:30 北北東 3 10km以上 10 87 1012 弱いしゅう雨
22 23:00 北北東 3 10km以上 11 82 1013 弱いしゅう雨
22 22:30 北北東 4 8,000m 11 82 1013 弱いしゅう雨
22 22:00 北北東 4 10km以上 11 76 1013 弱いしゅう雨
22 21:30 北北東 4 10km以上 12 71 1014 弱いしゅう雨
22 21:00 北北東 4 10km以上 12 71 1014 弱いしゅう雨
22 20:30 4 10km以上 12 77 1015 弱いしゅう雨
22 20:00 2 10km以上 12 77 1015 弱いしゅう雨
22 19:30 3 10km以上 12 71 1015 弱いしゅう雨
22 19:00 4 10km以上 12 71 1015
22 18:30 北北西 4 10km以上 12 71 1016
22 18:00 4 10km以上 12 71 1016
22 17:30 3 10km以上 13 72 1016
22 17:00 不定 1 10km以上 13 72 1016
22 16:30 2 10km以上 13 72 1017
22 16:00 2 10km以上 12 77 1016 周辺でしゅう雨
22 15:30 南東 3 10km以上 12 77 1017 弱いしゅう雨
22 15:00 南南東 3 10km以上 13 67 1018 弱いしゅう雨
22 14:30 南東 2 10km以上 13 58 1018
22 14:00 不定 1 10km以上 12 58 1019
22 13:30 2 10km以上 13 54 1018
22 13:00 不定 1 10km以上 13 54 1019
22 12:30 西 2 10km以上 13 54 1020
22 12:00 不定 1 10km以上 12 54 1020
22 11:30 不定 1 10km以上 12 54 1020
22 11:00 北西 2 10km以上 12 54 1022
22 10:30 不定 1 10km以上 12 54 1022
22 10:00 北東 4 10km以上 11 50 1023
22 09:30 5 10km以上 10 58 1023
22 09:00 5 10km以上 11 58 1024
22 08:30 北北西 5 10km以上 10 58 1024
22 08:00 4 10km以上 9 62 1024
22 07:30 北北東 3 10km以上 8 71 1024
22 07:00 3 10km以上 8 71 1024
22 06:30 北北東 3 10km以上 8 71 1024
22 06:00 北北東 3 10km以上 7 81 1023
22 05:30 北北東 3 10km以上 7 76 1024
22 05:00 北北東 3 10km以上 8 76 1024
22 04:30 北北東 3 10km以上 7 76 1024
22 04:00 北北東 3 10km以上 7 76 1024
22 03:30 北北東 3 10km以上 7 81 1024
22 03:00 北北東 3 10km以上 7 76 1025
22 02:30 北北東 3 10km以上 7 76 1025
22 02:00 北北東 3 10km以上 7 76 1025
22 01:30 北北東 4 10km以上 8 71 1025
22 01:00 北北東 5 10km以上 8 71 1025
22 00:30 北北東 4 10km以上 8 66 1025
RJGG 231500Z 28021KT 9999 FEW015 09/02 Q1015 NOSIG
RJGG 231430Z 28026KT 9999 FEW015 09/03 Q1015 NOSIG
RJGG 231400Z 28024KT 9999 FEW015 09/04 Q1016 NOSIG
RJGG 231330Z 28023KT 9999 FEW015 SCT080 09/02 Q1016 NOSIG
RJGG 231300Z 28023KT 9999 FEW015 09/03 Q1015 NOSIG
RJGG 231230Z 30017KT 9999 FEW015 09/03 Q1015 NOSIG
RJGG 231200Z 31023KT 9999 VCSH FEW015 SCT050 10/03 Q1015 NOSIG
RJGG 231130Z 32024KT 9999 VCSH FEW020 SCT050 10/02 Q1015 NOSIG
RJGG 231100Z 31022KT 9999 VCSH FEW020 10/04 Q1014 NOSIG
RJGG 231030Z 31025KT 9999 FEW020 10/04 Q1013 NOSIG
RJGG 231000Z 31025KT 9999 FEW015 11/04 Q1013 NOSIG
RJGG 230930Z 32025KT 9999 FEW015 10/05 Q1013 NOSIG
RJGG 230900Z 32026KT 9999 VCSH FEW015 BKN035 10/05 Q1013 NOSIG
RJGG 230830Z 31031KT 9999 VCSH FEW015 SCT035 11/05 Q1012 NOSIG
RJGG 230800Z 31030KT 9999 VCSH FEW015 12/05 Q1011 NOSIG
RJGG 230730Z 32030KT 9999 VCSH FEW015 SCT035 12/05 Q1011 TEMPO 32030G40KT
RJGG 230700Z 32029KT 9999 FEW015 SCT035 12/04 Q1010 TEMPO 32030G40KT
RJGG 230630Z 34026KT 9999 FEW015 12/04 Q1010 TEMPO 32030G40KT
RJGG 230600Z 33027KT 9999 FEW015 SCT050 12/05 Q1009 TEMPO 32030G40KT
RJGG 230530Z 33026KT 9999 VCSH FEW015 13/05 Q1009 TEMPO 32030G40KT
RJGG 230500Z 31029KT 9999 VCSH FEW015 BKN/// 13/05 Q1008 TEMPO 32030G40KT
RJGG 230430Z 31028KT 9999 VCSH FEW025 SCT040 BKN050 14/06 Q1008 TEMPO 32030G40KT
RJGG 230400Z 32023KT 9999 VCSH FEW030 BKN050 14/07 Q1007 TEMPO 32030G40KT
RJGG 230330Z 32027KT 9999 FEW030 14/07 Q1007 TEMPO 32030G40KT
RJGG 230300Z 32029KT 9999 FEW030 SCT070 14/07 Q1007 TEMPO 32035G45KT
RJGG 230230Z 31036KT 9999 FEW025 14/07 Q1006 TEMPO 32036G46KT
RJGG 230200Z 32030KT 9999 FEW025 15/08 Q1007 TEMPO 32035G45KT
RJGG 230130Z 33029KT 9999 FEW025 15/08 Q1006 TEMPO 32030G40KT
RJGG 230100Z 32024KT 9999 FEW020 15/08 Q1007 TEMPO 32030G40KT
RJGG 230030Z 31025KT 9999 FEW015 SCT170 14/09 Q1007 TEMPO 32030G40KT
RJGG 230000Z 33018KT 9999 FEW015 SCT030 14/09 Q1007 BECMG 32030KT
RJGG 222330Z 33016KT 9999 FEW015 SCT040 BKN120 13/09 Q1007 NOSIG
RJGG 222300Z 33018KT 9999 FEW010 SCT045 BKN110 13/09 Q1007 NOSIG
RJGG 222230Z 32015KT 9999 -RA FEW010 SCT045 BKN060 12/10 Q1008 NOSIG
RJGG 222200Z 33017KT 8000 -RA FEW010 BKN070 OVC090 12/10 Q1008 NOSIG
RJGG 222130Z 35014KT 5000 SHRA BR FEW010 SCT030 BKN040 11/09 Q1008 NOSIG
RJGG 222100Z 35013KT 5000 -SHRA BR FEW010 SCT030 BKN040 11/09 Q1008 NOSIG
RJGG 222030Z 35013KT 7000 -SHRA FEW004 SCT035 BKN050 12/09 Q1008 TEMPO 4000 SHRA BR
RJGG 222000Z 35015KT 8000 -SHRA FEW004 SCT035 BKN050 11/10 Q1009 TEMPO 4000 SHRA BR
RJGG 221930Z 35015KT 8000 SHRA FEW004 SCT006 BKN040 11/10 Q1009 TEMPO 4000 SHRA BR FEW004 BKN006
RJGG 221900Z 35015KT 7000 -SHRA FEW004 SCT006 BKN040 11/10 Q1009 TEMPO 4000 SHRA BR FEW004 BKN006
RJGG 221830Z 35012KT 7000 -SHRA FEW004 SCT035 BKN050 11/09 Q1009 TEMPO 4000 SHRA BR
RJGG 221800Z 35011KT 7000 -SHRA FEW005 BKN035 BKN050 11/09 Q1009 TEMPO 4000 SHRA BR
RJGG 221730Z 35013KT 7000 -SHRA FEW005 SCT015 BKN050 11/09 Q1010 BECMG FEW008 BKN014 TEMPO 4000 SHRA BR
RJGG 221700Z 35013KT 7000 -SHRA FEW005 SCT016 BKN020 11/09 Q1010 BECMG FEW008 BKN014
RJGG 221630Z 36012KT 7000 -SHRA FEW008 SCT014 BKN016 11/09 Q1010 TEMPO FEW008 BKN014
RJGG 221600Z 36008KT 7000 -SHRA FEW009 BKN014 11/09 Q1011 TEMPO FEW005 BKN008 BKN014
RJGG 221530Z 03005KT 9000 -SHRA FEW012 BKN014 11/08 Q1011 NOSIG
RJGG 221500Z 04006KT 9999 -SHRA FEW012 BKN014 BKN018 11/08 Q1011 NOSIG
RJGG 221430Z 03005KT 9999 -SHRA FEW012 SCT014 BKN018 10/08 Q1012 BECMG FEW008 BKN012
RJGG 221400Z 03006KT 9999 -SHRA FEW012 BKN015 BKN018 11/08 Q1013 BECMG FEW008 BKN012
RJGG 221330Z 03008KT 8000 -SHRA FEW013 SCT015 BKN018 11/08 Q1013 BECMG FEW008 BKN012
RJGG 221300Z 02008KT 9999 -SHRA FEW015 SCT017 BKN020 11/07 Q1013 NOSIG
RJGG 221230Z 02007KT 9999 -SHRA FEW015 SCT020 BKN050 12/07 Q1014 NOSIG
RJGG 221200Z 02008KT 9999 -SHRA FEW015 SCT020 BKN035 12/07 Q1014 NOSIG
RJGG 221130Z 01007KT 9999 -SHRA FEW015 BKN020 12/08 Q1015 NOSIG
RJGG 221100Z 01004KT 9999 -SHRA FEW015 BKN020 12/08 Q1015 NOSIG
RJGG 221030Z 36006KT 9999 -SHRA FEW015 BKN020 12/07 Q1015 NOSIG
RJGG 221000Z 36007KT 9999 FEW015 BKN020 12/07 Q1015 NOSIG
RJGG 220930Z 34007KT 9999 FEW015 BKN020 12/07 Q1016 NOSIG
RJGG 220900Z 36007KT 9999 FEW015 BKN020 12/07 Q1016 NOSIG
RJGG 220830Z 01005KT 9999 FEW020 SCT025 BKN040 13/08 Q1016 NOSIG
RJGG 220800Z VRB02KT 9999 FEW020 SCT025 BKN040 13/08 Q1016 BECMG 06005KT
RJGG 220730Z 10004KT 060V130 9999 FEW020 BKN040 BKN110 13/08 Q1017 NOSIG
RJGG 220700Z 10004KT 9999 VCSH FEW020 BKN060 BKN110 12/08 Q1016 NOSIG
RJGG 220630Z 13005KT 100V180 9999 -SHRA FEW015 SCT025 BKN060 12/08 Q1017 NOSIG
RJGG 220600Z 15005KT 9999 -SHRA FEW015 SCT025 BKN080 13/07 Q1018 NOSIG
RJGG 220530Z 14003KT 080V170 9999 FEW015 SCT025 BKN080 13/05 Q1018 NOSIG
RJGG 220500Z VRB01KT 9999 FEW020 BKN080 BKN160 12/04 Q1019 NOSIG
RJGG 220430Z 10003KT 040V190 9999 FEW030 BKN160 13/04 Q1018 NOSIG
RJGG 220400Z VRB02KT 9999 FEW030 BKN160 13/04 Q1019 NOSIG
RJGG 220330Z 28003KT 210V310 9999 FEW030 BKN150 13/04 Q1020 NOSIG
RJGG 220300Z VRB02KT 9999 FEW030 BKN170 12/03 Q1020 NOSIG
RJGG 220230Z VRB02KT 9999 FEW030 BKN170 BKN/// 12/03 Q1020 NOSIG
RJGG 220200Z 31003KT 260V040 9999 FEW030 BKN/// 12/03 Q1022 NOSIG
RJGG 220130Z VRB02KT 9999 FEW030 BKN/// 12/03 Q1022 BECMG 03005KT
RJGG 220100Z 04007KT 9999 FEW030 BKN/// 11/01 Q1023 NOSIG
RJGG 220030Z 36009KT 9999 FEW030 BKN/// 10/02 Q1023 NOSIG
RJGG 220000Z 35009KT 9999 FEW030 BKN/// 11/03 Q1024 NOSIG
RJGG 212330Z 34009KT 9999 FEW025 SCT040 BKN/// 10/02 Q1024 NOSIG
RJGG 212300Z 36008KT 9999 FEW025 SCT/// 09/02 Q1024 NOSIG
RJGG 212230Z 03005KT 9999 FEW025 SCT/// 08/03 Q1024 NOSIG
RJGG 212200Z 01005KT 9999 FEW020 BKN035 08/03 Q1024 NOSIG
RJGG 212130Z 02005KT 9999 FEW020 BKN035 08/03 Q1024 NOSIG
RJGG 212100Z 02006KT 9999 FEW020 BKN030 07/04 Q1023 NOSIG
RJGG 212030Z 03006KT 9999 FEW020 BKN030 07/03 Q1024 NOSIG
RJGG 212000Z 02005KT 9999 FEW020 BKN030 08/04 Q1024 NOSIG
RJGG 211930Z 02006KT 9999 FEW020 BKN030 07/03 Q1024 NOSIG
RJGG 211900Z 03006KT 9999 FEW020 SCT038 BKN060 07/03 Q1024 NOSIG
RJGG 211830Z 02006KT 9999 FEW020 BKN040 07/04 Q1024 NOSIG
RJGG 211800Z 03006KT 9999 FEW020 BKN035 07/03 Q1025 NOSIG
RJGG 211730Z 03005KT 9999 FEW020 BKN035 07/03 Q1025 NOSIG
RJGG 211700Z 03005KT 9999 FEW020 BKN035 07/03 Q1025 NOSIG
RJGG 211630Z 03007KT 9999 FEW030 BKN040 08/03 Q1025 NOSIG
RJGG 211600Z 02009KT 9999 FEW030 BKN040 08/03 Q1025 NOSIG
RJGG 211530Z 03008KT 9999 FEW030 BKN050 08/02 Q1025 NOSIG